createdAt,value
2017-11-11T00:00:24.781Z,89.75
2017-11-11T00:02:59.488Z,89.80
2017-11-11T00:05:34.293Z,89.91
2017-11-11T00:08:08.736Z,89.88
2017-11-11T00:10:44.121Z,89.89
2017-11-11T00:13:19.042Z,89.99
2017-11-11T00:15:54.158Z,90.14
2017-11-11T00:18:28.953Z,90.17
2017-11-11T00:21:03.809Z,90.09
2017-11-11T00:23:38.449Z,89.80
2017-11-11T00:26:14.321Z,89.87
2017-11-11T00:28:49.280Z,89.77
2017-11-11T00:31:24.086Z,89.78
2017-11-11T00:33:58.894Z,89.56
2017-11-11T00:36:33.861Z,89.32
2017-11-11T00:39:09.053Z,89.44
2017-11-11T00:41:43.737Z,89.30
2017-11-11T00:44:18.549Z,88.92
2017-11-11T00:46:53.169Z,88.78
2017-11-11T00:49:27.744Z,88.68
2017-11-11T00:52:02.627Z,88.79
2017-11-11T00:54:37.261Z,88.98
2017-11-11T00:57:11.980Z,89.14
2017-11-11T00:59:46.790Z,89.23
2017-11-11T01:02:21.605Z,89.41
2017-11-11T01:04:56.311Z,89.58
2017-11-11T01:07:31.893Z,89.62
2017-11-11T01:10:06.704Z,89.70
2017-11-11T01:12:41.952Z,89.75
2017-11-11T01:15:16.853Z,89.72
2017-11-11T01:17:51.833Z,89.50
2017-11-11T01:20:26.645Z,89.11
2017-11-11T01:23:01.543Z,88.44
2017-11-11T01:25:36.720Z,88.18
2017-11-11T01:28:11.750Z,88.44
2017-11-11T01:30:46.759Z,88.11
2017-11-11T01:33:21.649Z,88.46
2017-11-11T01:35:55.984Z,89.20
2017-11-11T01:38:30.938Z,90.12
2017-11-11T01:41:05.843Z,90.57
2017-11-11T01:43:40.739Z,90.66
2017-11-11T01:46:15.621Z,90.75
2017-11-11T01:48:50.318Z,91.00
2017-11-11T01:51:24.857Z,91.47
2017-11-11T01:54:00.021Z,92.07
2017-11-11T01:56:34.365Z,92.33
2017-11-11T01:59:08.926Z,92.53
2017-11-11T02:01:43.769Z,92.73
2017-11-11T02:04:18.593Z,92.85
2017-11-11T02:06:53.697Z,92.94
2017-11-11T02:09:29.018Z,92.94
2017-11-11T02:12:03.952Z,92.91
2017-11-11T02:14:38.550Z,93.00
2017-11-11T02:17:14.513Z,92.97
2017-11-11T02:19:48.474Z,93.05
2017-11-11T02:22:22.982Z,93.28
2017-11-11T02:24:58.032Z,93.20
2017-11-11T02:27:33.157Z,93.33
2017-11-11T02:30:07.750Z,93.41
2017-11-11T02:32:42.390Z,93.43
2017-11-11T02:35:17.353Z,93.47
2017-11-11T02:37:52.120Z,93.53
2017-11-11T02:40:27.199Z,93.62
2017-11-11T02:43:01.521Z,93.74
2017-11-11T02:45:36.657Z,93.73
2017-11-11T02:48:11.209Z,93.62
2017-11-11T02:50:45.925Z,93.41
2017-11-11T02:53:20.888Z,93.37
2017-11-11T02:55:55.672Z,93.53
2017-11-11T02:58:30.400Z,93.41
2017-11-11T03:01:04.550Z,93.29
2017-11-11T03:03:39.754Z,92.98
2017-11-11T03:06:14.661Z,93.02
2017-11-11T03:08:49.654Z,92.99
2017-11-11T03:11:24.493Z,92.84
2017-11-11T03:13:59.604Z,92.58
2017-11-11T03:16:34.073Z,92.45
2017-11-11T03:19:08.948Z,92.29
2017-11-11T03:21:44.053Z,92.16
2017-11-11T03:24:19.482Z,92.13
2017-11-11T03:26:54.481Z,92.04
2017-11-11T03:29:29.210Z,91.74
2017-11-11T03:32:03.888Z,91.70
2017-11-11T03:34:39.462Z,91.69
2017-11-11T03:37:14.370Z,91.59
2017-11-11T03:39:49.137Z,91.59
2017-11-11T03:42:23.753Z,91.40
2017-11-11T03:44:58.276Z,91.57
2017-11-11T03:47:33.434Z,91.53
2017-11-11T03:50:08.353Z,91.13
2017-11-11T03:52:43.366Z,90.99
2017-11-11T03:55:18.385Z,91.12
2017-11-11T03:57:53.348Z,91.18
2017-11-11T04:00:28.465Z,91.07
2017-11-11T04:03:03.154Z,91.13
2017-11-11T04:05:37.850Z,91.23
2017-11-11T04:08:12.611Z,91.21
2017-11-11T04:10:47.262Z,91.54
2017-11-11T04:13:22.290Z,91.96
2017-11-11T04:15:56.986Z,92.30
2017-11-11T04:18:31.553Z,92.65
2017-11-11T04:21:06.469Z,92.78
2017-11-11T04:23:41.181Z,92.98
2017-11-11T04:26:15.902Z,93.12
2017-11-11T04:28:50.707Z,93.13
2017-11-11T04:31:26.529Z,93.11
2017-11-11T04:34:01.236Z,93.07
2017-11-11T04:36:35.969Z,93.11
2017-11-11T04:39:10.545Z,93.16
2017-11-11T04:41:45.154Z,93.21
2017-11-11T04:44:20.052Z,93.16
2017-11-11T04:46:54.834Z,93.35
2017-11-11T04:49:29.529Z,93.21
2017-11-11T04:52:03.992Z,93.26
2017-11-11T04:54:38.858Z,93.26
2017-11-11T04:57:13.844Z,93.26
2017-11-11T04:59:48.881Z,93.41
2017-11-11T05:02:23.805Z,93.34
2017-11-11T05:04:58.714Z,93.30
2017-11-11T05:07:33.849Z,93.26
2017-11-11T05:10:08.733Z,93.37
2017-11-11T05:12:43.253Z,93.36
2017-11-11T05:15:18.142Z,93.40
2017-11-11T05:17:52.837Z,93.48
2017-11-11T05:20:27.434Z,93.48
2017-11-11T05:23:02.447Z,93.41
2017-11-11T05:25:37.299Z,93.46
2017-11-11T05:28:11.865Z,93.62
2017-11-11T05:30:46.506Z,93.61
2017-11-11T05:33:21.504Z,93.45
2017-11-11T05:35:56.189Z,93.46
2017-11-11T05:38:31.298Z,93.99
2017-11-11T05:41:06.356Z,94.22
2017-11-11T05:43:41.216Z,94.35
2017-11-11T05:46:16.432Z,94.64
2017-11-11T05:48:51.201Z,94.63
2017-11-11T05:51:26.117Z,94.78
2017-11-11T05:54:01.522Z,94.62
2017-11-11T05:56:36.027Z,94.71
2017-11-11T05:59:10.845Z,94.76
2017-11-11T06:01:46.421Z,94.94
2017-11-11T06:04:21.117Z,95.04
2017-11-11T06:06:56.079Z,95.06
2017-11-11T06:09:31.408Z,95.18
2017-11-11T06:12:06.309Z,95.15
2017-11-11T06:14:41.290Z,95.26
2017-11-11T06:17:16.200Z,95.35
2017-11-11T06:19:51.290Z,95.54
2017-11-11T06:22:26.083Z,95.69
2017-11-11T06:25:00.902Z,95.67
2017-11-11T06:27:35.905Z,95.61
2017-11-11T06:30:10.934Z,95.55
2017-11-11T06:32:46.667Z,95.27
2017-11-11T06:35:21.374Z,95.07
2017-11-11T06:37:56.222Z,94.81
2017-11-11T06:40:31.114Z,94.89
2017-11-11T06:43:05.757Z,94.88
2017-11-11T06:45:40.441Z,94.99
2017-11-11T06:48:15.617Z,94.96
2017-11-11T06:50:50.785Z,94.82
2017-11-11T06:53:25.593Z,94.82
2017-11-11T06:56:00.201Z,94.78
2017-11-11T06:58:35.021Z,94.69
2017-11-11T07:01:09.685Z,94.29
2017-11-11T07:03:44.294Z,94.29
2017-11-11T07:06:19.115Z,94.39
2017-11-11T07:08:53.625Z,94.37
2017-11-11T07:11:28.313Z,94.32
2017-11-11T07:14:02.683Z,94.05
2017-11-11T07:16:37.926Z,93.93
2017-11-11T07:19:13.682Z,93.94
2017-11-11T07:21:48.789Z,93.90
2017-11-11T07:24:23.890Z,93.95
2017-11-11T07:26:59.070Z,93.95
2017-11-11T07:29:34.092Z,93.86
2017-11-11T07:32:09.298Z,93.78
2017-11-11T07:34:44.193Z,93.77
2017-11-11T07:37:19.077Z,93.69
2017-11-11T07:39:54.201Z,93.59
2017-11-11T07:42:29.012Z,93.64
2017-11-11T07:45:04.022Z,93.50
2017-11-11T07:47:38.729Z,93.45
2017-11-11T07:50:13.545Z,93.32
2017-11-11T07:52:48.321Z,93.00
2017-11-11T07:55:24.193Z,92.68
2017-11-11T07:57:59.481Z,92.23
2017-11-11T08:00:34.208Z,91.82
2017-11-11T08:03:08.908Z,91.71
2017-11-11T08:05:43.734Z,91.64
2017-11-11T08:08:18.384Z,91.69
2017-11-11T08:10:53.170Z,91.54
2017-11-11T08:13:28.833Z,90.29
2017-11-11T08:16:03.308Z,90.16
2017-11-11T08:18:38.313Z,89.80
2017-11-11T08:21:12.909Z,89.33
2017-11-11T08:23:47.908Z,88.96
2017-11-11T08:26:22.818Z,88.96
2017-11-11T08:28:57.302Z,88.11
2017-11-11T08:31:32.234Z,87.37
2017-11-11T08:34:07.530Z,88.28
2017-11-11T08:36:41.849Z,89.34
2017-11-11T08:39:16.868Z,90.41
2017-11-11T08:41:51.486Z,91.09
2017-11-11T08:44:27.053Z,90.70
2017-11-11T08:47:01.933Z,91.61
2017-11-11T08:49:36.627Z,92.10
2017-11-11T08:52:11.536Z,92.42
2017-11-11T08:54:46.446Z,92.85
2017-11-11T08:57:21.046Z,93.15
2017-11-11T08:59:55.737Z,93.24
2017-11-11T09:02:30.748Z,93.32
2017-11-11T09:05:05.318Z,93.59
2017-11-11T09:07:39.989Z,93.74
2017-11-11T09:10:14.644Z,93.63
2017-11-11T09:12:49.569Z,93.82
2017-11-11T09:15:25.155Z,93.89
2017-11-11T09:18:00.026Z,93.95
2017-11-11T09:20:34.910Z,94.17
2017-11-11T09:23:09.609Z,94.50
2017-11-11T09:25:44.592Z,94.41
2017-11-11T09:28:20.197Z,94.45
2017-11-11T09:30:55.254Z,94.26
2017-11-11T09:33:30.180Z,94.44
2017-11-11T09:36:05.387Z,94.62
2017-11-11T09:38:40.269Z,94.80
2017-11-11T09:41:15.661Z,95.06
2017-11-11T09:43:50.806Z,95.33
2017-11-11T09:46:27.324Z,95.60
2017-11-11T09:49:01.838Z,95.77
2017-11-11T09:51:36.738Z,96.16
2017-11-11T09:54:11.457Z,96.40
2017-11-11T09:56:46.651Z,96.46
2017-11-11T09:59:21.909Z,96.59
2017-11-11T10:01:57.031Z,96.74
2017-11-11T10:04:32.060Z,97.08
2017-11-11T10:07:07.093Z,97.08
2017-11-11T10:09:42.014Z,96.98
2017-11-11T10:12:17.230Z,96.56
2017-11-11T10:14:52.348Z,96.35
2017-11-11T10:17:27.248Z,96.21
2017-11-11T10:20:02.086Z,95.72
2017-11-11T10:22:37.045Z,95.36
2017-11-11T10:25:12.134Z,94.43
2017-11-11T10:27:46.562Z,94.38
2017-11-11T10:30:20.957Z,94.27
2017-11-11T10:32:55.646Z,94.38
2017-11-11T10:35:30.321Z,93.38
2017-11-11T10:38:05.306Z,92.77
2017-11-11T10:40:40.377Z,92.76
2017-11-11T10:43:14.839Z,92.21
2017-11-11T10:45:49.958Z,91.34
2017-11-11T10:48:24.763Z,91.04
2017-11-11T10:50:59.433Z,91.17
2017-11-11T10:53:34.513Z,91.84
2017-11-11T10:56:09.642Z,91.50
2017-11-11T10:58:44.876Z,91.89
2017-11-11T11:01:20.098Z,92.32
2017-11-11T11:03:55.261Z,92.32
2017-11-11T11:06:30.156Z,92.61
2017-11-11T11:09:04.346Z,92.43
2017-11-11T11:11:39.574Z,92.87
2017-11-11T11:14:14.597Z,93.41
2017-11-11T11:16:49.609Z,90.48
2017-11-11T11:19:24.408Z,87.24
2017-11-11T11:21:59.034Z,85.62
2017-11-11T11:24:33.852Z,86.34
2017-11-11T11:27:08.207Z,86.08
2017-11-11T11:29:43.419Z,87.16
2017-11-11T11:32:18.019Z,88.95
2017-11-11T11:34:52.739Z,90.55
2017-11-11T11:37:27.649Z,91.66
2017-11-11T11:40:02.370Z,92.48
2017-11-11T11:42:37.371Z,93.24
2017-11-11T11:45:12.945Z,93.72
2017-11-11T11:47:47.752Z,93.99
2017-11-11T11:50:22.720Z,94.45
2017-11-11T11:52:57.723Z,94.98
2017-11-11T11:55:32.703Z,95.46
2017-11-11T11:58:07.598Z,95.95
2017-11-11T12:00:42.280Z,96.15
2017-11-11T12:03:17.098Z,96.37
2017-11-11T12:05:51.721Z,96.18
2017-11-11T12:08:26.850Z,96.34
2017-11-11T12:11:01.849Z,96.81
2017-11-11T12:13:36.833Z,97.18
2017-11-11T12:16:11.849Z,97.46
2017-11-11T12:18:46.861Z,97.32
2017-11-11T12:21:21.581Z,97.22
2017-11-11T12:23:56.357Z,97.35
2017-11-11T12:26:31.114Z,97.63
2017-11-11T12:29:05.997Z,97.83
2017-11-11T12:31:40.699Z,97.52
2017-11-11T12:34:15.577Z,97.39
2017-11-11T12:36:50.172Z,97.35
2017-11-11T12:39:24.761Z,97.47
2017-11-11T12:42:00.642Z,97.28
2017-11-11T12:44:36.250Z,97.16
2017-11-11T12:47:11.117Z,97.12
2017-11-11T12:49:46.206Z,97.17
2017-11-11T12:52:22.011Z,97.39
2017-11-11T12:54:56.711Z,97.64
2017-11-11T12:57:31.584Z,98.03
2017-11-11T13:00:06.585Z,98.01
2017-11-11T13:02:41.388Z,97.35
2017-11-11T13:05:16.172Z,97.20
2017-11-11T13:07:50.641Z,97.04
2017-11-11T13:10:25.729Z,96.63
2017-11-11T13:13:00.720Z,96.42
2017-11-11T13:15:35.629Z,96.03
2017-11-11T13:18:10.730Z,96.00
2017-11-11T13:20:45.693Z,95.38
2017-11-11T13:23:20.611Z,95.01
2017-11-11T13:25:55.333Z,95.08
2017-11-11T13:28:30.437Z,95.26
2017-11-11T13:31:05.106Z,95.58
2017-11-11T13:33:39.927Z,95.74
2017-11-11T13:36:14.628Z,95.75
2017-11-11T13:38:49.558Z,96.12
2017-11-11T13:41:24.361Z,96.37
2017-11-11T13:43:59.086Z,96.65
2017-11-11T13:46:33.682Z,96.59
2017-11-11T13:49:08.674Z,96.29
2017-11-11T13:51:43.478Z,96.19
2017-11-11T13:54:18.255Z,96.27
2017-11-11T13:56:53.033Z,96.20
2017-11-11T13:59:27.845Z,96.11
2017-11-11T14:02:03.695Z,96.29
2017-11-11T14:04:38.385Z,96.00
2017-11-11T14:07:13.006Z,96.13
2017-11-11T14:09:48.250Z,96.36
2017-11-11T14:12:23.385Z,96.29
2017-11-11T14:14:58.202Z,96.15
2017-11-11T14:17:32.864Z,95.99
2017-11-11T14:20:07.710Z,96.09
2017-11-11T14:22:42.594Z,96.20
2017-11-11T14:25:17.357Z,96.17
2017-11-11T14:27:52.292Z,96.20
2017-11-11T14:30:27.393Z,96.03
2017-11-11T14:33:02.076Z,95.83
2017-11-11T14:35:36.914Z,95.81
2017-11-11T14:38:12.006Z,95.94
2017-11-11T14:40:46.822Z,96.15
2017-11-11T14:43:21.512Z,96.11
2017-11-11T14:45:56.406Z,96.12
2017-11-11T14:48:31.233Z,96.30
2017-11-11T14:51:05.993Z,96.36
2017-11-11T14:53:40.606Z,96.32
2017-11-11T14:56:15.831Z,96.39
2017-11-11T14:58:50.686Z,96.19
2017-11-11T15:01:25.706Z,95.88
2017-11-11T15:04:00.373Z,95.85
2017-11-11T15:06:35.288Z,95.68
2017-11-11T15:09:10.661Z,95.64
2017-11-11T15:11:45.573Z,95.72
2017-11-11T15:14:20.485Z,95.80
2017-11-11T15:16:55.105Z,95.79
2017-11-11T15:19:30.105Z,95.86
2017-11-11T15:22:05.328Z,95.94
2017-11-11T15:24:40.422Z,95.83
2017-11-11T15:27:15.229Z,95.75
2017-11-11T15:29:49.706Z,95.73
2017-11-11T15:32:24.712Z,95.69
2017-11-11T15:34:59.638Z,95.76
2017-11-11T15:37:34.360Z,96.06
2017-11-11T15:40:09.376Z,96.24
2017-11-11T15:42:44.483Z,96.41
2017-11-11T15:45:19.545Z,96.16
2017-11-11T15:47:54.457Z,96.20
2017-11-11T15:50:29.277Z,96.22
2017-11-11T15:53:04.098Z,96.15
2017-11-11T15:55:38.706Z,96.10
2017-11-11T15:58:14.038Z,96.09
2017-11-11T16:00:48.836Z,96.31
2017-11-11T16:03:23.536Z,96.31
2017-11-11T16:05:58.138Z,96.28
2017-11-11T16:08:32.945Z,96.33
2017-11-11T16:11:07.554Z,96.38
2017-11-11T16:13:42.637Z,96.50
2017-11-11T16:16:17.381Z,96.53
2017-11-11T16:18:52.433Z,96.55
2017-11-11T16:21:27.365Z,96.60
2017-11-11T16:24:02.153Z,96.58
2017-11-11T16:26:36.686Z,96.74
2017-11-11T16:29:11.701Z,96.36
2017-11-11T16:31:46.494Z,96.13
2017-11-11T16:34:22.364Z,95.84
2017-11-11T16:36:57.388Z,95.68
2017-11-11T16:39:32.120Z,95.35
2017-11-11T16:42:06.913Z,95.13
2017-11-11T16:44:41.756Z,95.12
2017-11-11T16:47:16.438Z,95.37
2017-11-11T16:49:51.153Z,95.39
2017-11-11T16:52:25.346Z,95.64
2017-11-11T16:54:59.861Z,95.91
2017-11-11T16:57:34.513Z,96.03
2017-11-11T17:00:09.706Z,96.29
2017-11-11T17:02:44.530Z,96.66
2017-11-11T17:05:19.416Z,96.81
2017-11-11T17:07:55.006Z,97.02
2017-11-11T17:10:29.790Z,97.04
2017-11-11T17:13:04.754Z,96.98
2017-11-11T17:15:39.638Z,97.22
2017-11-11T17:18:14.466Z,97.26
2017-11-11T17:20:49.142Z,97.14
2017-11-11T17:23:23.969Z,97.03
2017-11-11T17:25:58.854Z,96.95
2017-11-11T17:28:33.757Z,97.13
2017-11-11T17:31:08.456Z,96.98
2017-11-11T17:33:43.329Z,96.67
2017-11-11T17:36:18.145Z,96.84
2017-11-11T17:38:52.976Z,96.90
2017-11-11T17:41:27.673Z,96.85
2017-11-11T17:44:02.494Z,96.73
2017-11-11T17:46:36.967Z,96.75
2017-11-11T17:49:11.885Z,96.84
2017-11-11T17:51:47.458Z,96.56
2017-11-11T17:54:21.917Z,96.51
2017-11-11T17:56:56.829Z,96.39
2017-11-11T17:59:31.737Z,96.47
2017-11-11T18:02:06.670Z,96.77
2017-11-11T18:04:41.642Z,96.72
2017-11-11T18:07:16.750Z,96.73
2017-11-11T18:09:51.630Z,97.09
2017-11-11T18:12:26.486Z,97.43
2017-11-11T18:15:01.513Z,97.69
2017-11-11T18:17:36.517Z,97.95
2017-11-11T18:20:11.693Z,98.21
2017-11-11T18:22:46.601Z,98.44
2017-11-11T18:25:21.221Z,98.70
2017-11-11T18:27:55.909Z,98.78
2017-11-11T18:30:30.729Z,98.72
2017-11-11T18:33:05.513Z,98.78
2017-11-11T18:35:40.310Z,98.69
2017-11-11T18:38:15.970Z,98.54
2017-11-11T18:40:50.766Z,98.45
2017-11-11T18:43:25.905Z,98.34
2017-11-11T18:46:01.042Z,98.34
2017-11-11T18:48:35.934Z,98.38
2017-11-11T18:51:11.057Z,98.40
2017-11-11T18:53:46.167Z,98.38
2017-11-11T18:56:21.051Z,98.21
2017-11-11T18:58:55.797Z,98.19
2017-11-11T19:01:30.510Z,98.24
2017-11-11T19:04:05.150Z,98.28
2017-11-11T19:06:39.802Z,98.30
2017-11-11T19:09:14.788Z,98.14
2017-11-11T19:11:49.469Z,98.02
2017-11-11T19:14:24.445Z,98.04
2017-11-11T19:16:59.834Z,98.14
2017-11-11T19:19:34.802Z,98.27
2017-11-11T19:22:09.763Z,98.27
2017-11-11T19:24:44.419Z,98.21
2017-11-11T19:27:19.707Z,98.05
2017-11-11T19:29:54.361Z,97.83
2017-11-11T19:32:29.177Z,97.77
2017-11-11T19:35:04.046Z,97.97
2017-11-11T19:37:38.801Z,97.67
2017-11-11T19:40:13.736Z,97.63
2017-11-11T19:42:48.533Z,97.28
2017-11-11T19:45:23.473Z,96.96
2017-11-11T19:47:58.313Z,96.90
2017-11-11T19:50:34.209Z,96.82
2017-11-11T19:53:09.101Z,96.27
2017-11-11T19:55:43.897Z,96.02
2017-11-11T19:58:19.662Z,95.97
2017-11-11T20:00:54.329Z,95.88
2017-11-11T20:03:28.440Z,95.72
2017-11-11T20:06:03.858Z,95.79
2017-11-11T20:08:38.613Z,95.80
2017-11-11T20:11:13.399Z,95.81
2017-11-11T20:13:48.303Z,95.89
2017-11-11T20:16:23.118Z,96.24
2017-11-11T20:18:58.029Z,96.35
2017-11-11T20:21:32.621Z,96.01
2017-11-11T20:24:08.372Z,95.82
2017-11-11T20:26:43.356Z,95.78
2017-11-11T20:29:17.752Z,95.82
2017-11-11T20:31:52.733Z,95.94
2017-11-11T20:34:27.748Z,96.07
2017-11-11T20:37:02.723Z,96.25
2017-11-11T20:39:37.723Z,96.19
2017-11-11T20:42:12.697Z,96.18
2017-11-11T20:44:47.758Z,96.06
2017-11-11T20:47:22.736Z,95.99
2017-11-11T20:49:57.526Z,95.98
2017-11-11T20:52:32.114Z,95.96
2017-11-11T20:55:06.737Z,96.03
2017-11-11T20:57:41.208Z,96.05
2017-11-11T21:00:16.206Z,96.02
2017-11-11T21:02:50.928Z,95.96
2017-11-11T21:05:26.593Z,96.01
2017-11-11T21:08:01.184Z,96.03
2017-11-11T21:10:36.036Z,96.32
2017-11-11T21:13:11.415Z,96.55
2017-11-11T21:15:46.637Z,96.79
2017-11-11T21:18:21.436Z,96.80
2017-11-11T21:20:55.822Z,96.87
2017-11-11T21:23:30.578Z,96.87
2017-11-11T21:26:05.324Z,96.87
2017-11-11T21:28:40.502Z,96.89
2017-11-11T21:31:14.766Z,96.93
2017-11-11T21:33:49.693Z,96.86
2017-11-11T21:36:24.521Z,96.81
2017-11-11T21:38:59.512Z,97.06
2017-11-11T21:41:34.568Z,97.05
2017-11-11T21:44:09.345Z,96.91
2017-11-11T21:46:44.150Z,96.92
2017-11-11T21:49:22.165Z,96.91
2017-11-11T21:51:56.978Z,96.70
2017-11-11T21:54:31.868Z,96.59
2017-11-11T21:57:06.449Z,96.71
2017-11-11T21:59:41.365Z,96.77
2017-11-11T22:02:15.989Z,96.73
2017-11-11T22:04:50.787Z,96.83
2017-11-11T22:07:25.725Z,97.16
2017-11-11T22:10:00.506Z,97.36
2017-11-11T22:12:35.521Z,97.58
2017-11-11T22:15:10.436Z,97.73
2017-11-11T22:17:45.453Z,97.79
2017-11-11T22:20:20.463Z,97.93
2017-11-11T22:22:55.394Z,98.16
2017-11-11T22:25:30.296Z,98.25
2017-11-11T22:28:05.065Z,98.33
2017-11-11T22:30:39.930Z,98.04
2017-11-11T22:33:14.628Z,97.88
2017-11-11T22:35:49.370Z,97.71
2017-11-11T22:38:25.241Z,97.59
2017-11-11T22:41:00.093Z,97.23
2017-11-11T22:43:35.084Z,96.99
2017-11-11T22:46:09.774Z,96.93
2017-11-11T22:48:44.589Z,96.90
2017-11-11T22:51:19.778Z,96.87
2017-11-11T22:53:54.797Z,97.06
2017-11-11T22:56:29.705Z,97.01
2017-11-11T22:59:04.529Z,96.95
2017-11-11T23:01:39.393Z,97.01
2017-11-11T23:04:14.413Z,97.04
2017-11-11T23:06:50.002Z,97.04
2017-11-11T23:09:24.764Z,97.18
2017-11-11T23:11:59.548Z,97.14
2017-11-11T23:14:34.856Z,97.27
2017-11-11T23:17:09.559Z,97.38
2017-11-11T23:19:44.453Z,97.33
2017-11-11T23:22:19.001Z,97.05
2017-11-11T23:24:54.005Z,97.16
2017-11-11T23:27:29.864Z,97.19
2017-11-11T23:30:04.338Z,97.07
2017-11-11T23:32:39.302Z,97.00
2017-11-11T23:35:14.017Z,96.92
2017-11-11T23:37:48.830Z,97.00
2017-11-11T23:40:23.829Z,96.96
2017-11-11T23:42:58.509Z,97.01
2017-11-11T23:45:33.319Z,96.93
2017-11-11T23:48:07.925Z,96.74
2017-11-11T23:50:42.517Z,96.76
2017-11-11T23:53:17.302Z,96.76
2017-11-11T23:55:52.169Z,96.85
2017-11-11T23:58:27.080Z,96.95
